• Join FlightAware (Why Join?)
  • Login
  • US Flag 
08:37PM EST


 

Airport Tracker/Info


-or-


 

Live Flight TrackerFlight Track Log ✈ CES5850 ✈ 18-Apr-2013 ✈ ZPPP / KMG - ZPJH / JHG

Flight Track Log - Related Links

Times and Time Zones

All times are in EDT time to prevent confusion due to time zone crossing. See the CES5850 flight status page for this flight to view local times or setup timezone preferences in your user account.

Time Position Orientation Groundspeed Altitude Reporting Facility
EDT Latitude Longitude Course Direction KTS MPH feet Rate Location/Type
09:35AM 24.1941 102.2865 213° Southwest  Level Estimated
09:36AM 24.1292 102.2410 213° Southwest  Level Estimated
09:37AM 24.0642 102.1955 213° Southwest  Level Estimated
09:38AM 23.9992 102.1500 213° Southwest  Level Estimated
09:39AM 23.9342 102.1046 213° Southwest  Level Estimated
09:40AM 23.8692 102.0592 213° Southwest  Level Estimated
09:41AM 23.8042 102.0139 213° Southwest  Level Estimated
09:42AM 23.7392 101.9686 213° Southwest  Level Estimated
09:43AM 23.6741 101.9234 212° Southwest  Level Estimated
09:44AM 23.6091 101.8782 212° Southwest  Level Estimated
09:45AM 23.5440 101.8331 212° Southwest  Level Estimated
09:46AM 23.4789 101.7880 212° Southwest  Level Estimated
09:47AM 23.4138 101.7430 212° Southwest  Level Estimated
09:48AM 23.3487 101.6979 212° Southwest  Level Estimated
09:49AM 23.2836 101.6530 212° Southwest  Level Estimated
09:50AM 23.2185 101.6081 212° Southwest  Level Estimated
09:51AM 23.1533 101.5632 212° Southwest  Level Estimated
09:52AM 23.0882 101.5184 212° Southwest  Level Estimated
09:53AM 23.0230 101.4736 212° Southwest  Level Estimated
09:54AM 22.9578 101.4288 212° Southwest  Level Estimated
09:55AM 22.8926 101.3841 212° Southwest  Level Estimated
09:56AM 22.8274 101.3395 212° Southwest  Level Estimated
09:57AM 22.7622 101.2949 212° Southwest  Level Estimated
09:58AM 22.6970 101.2503 212° Southwest  Level Estimated
09:59AM 22.6317 101.2057 212° Southwest  Level Estimated
10:00AM 22.5664 101.1613 212° Southwest  Level Estimated
10:01AM 22.5012 101.1168 212° Southwest  Level Estimated
10:02AM 22.4359 101.0724 212° Southwest  Level Estimated
10:03AM 22.3706 101.0281 212° Southwest  Level Estimated
10:04AM 22.3053 100.9837 212° Southwest  Level Estimated
10:05AM 22.2400 100.9395 212° Southwest  Level Estimated
10:06AM 22.1746 100.8952 212° Southwest  Level Estimated
10:07AM 22.1093 100.8510 212° Southwest  Level Estimated
10:08AM 22.0439 100.8069 212° Southwest  Level Estimated
10:09AM 21.9786 100.7627 212° Southwest  Level Estimated
10:10AM 21.9739 100.7596 212° Southwest  Level Estimated
10:11AM 21.9739 100.7596 13° North  Level Estimated
10:12AM 21.9739 100.7596 13° North  Level Estimated
10:13AM 21.9739 100.7596 13° North  Level Estimated
10:14AM 21.9739 100.7596 13° North  Level Estimated
10:15AM 21.9739 100.7596 13° North  Level Estimated
10:16AM 21.9739 100.7596 13° North  Level Estimated
10:17AM 21.9739 100.7596 13° North  Level Estimated
10:18AM 21.9739 100.7596 13° North  Level Estimated
10:19AM 21.9739 100.7596 13° North  Level Estimated
10:20AM 21.9739 100.7596 13° North  Level Estimated
10:21AM 21.9739 100.7596 13° North  Level Estimated
10:22AM 21.9739 100.7596 13° North  Level Estimated
10:23AM 21.9739 100.7596 13° North  Level Estimated
10:24AM 21.9739 100.7596 13° North  Level Estimated
10:25AM 21.9739 100.7596 13° North  Level Estimated